createdAt,value
2019-03-31T00:01:19.059Z,9.83
2019-03-31T00:03:47.583Z,9.07
2019-03-31T00:06:16.067Z,8.80
2019-03-31T00:08:44.537Z,8.97
2019-03-31T00:11:13.471Z,9.30
2019-03-31T00:13:41.934Z,10.53
2019-03-31T00:16:10.483Z,10.43
2019-03-31T00:18:39.184Z,9.50
2019-03-31T00:21:07.644Z,9.20
2019-03-31T00:23:36.139Z,11.93
2019-03-31T00:26:04.710Z,10.07
2019-03-31T00:28:33.195Z,9.60
2019-03-31T00:31:01.736Z,10.20
2019-03-31T00:33:30.266Z,8.77
2019-03-31T00:35:58.833Z,9.30
2019-03-31T00:38:27.466Z,9.17
2019-03-31T00:40:55.991Z,8.77
2019-03-31T00:43:25.235Z,8.73
2019-03-31T00:45:53.751Z,8.70
2019-03-31T00:48:22.283Z,8.80
2019-03-31T00:50:51.038Z,9.33
2019-03-31T00:53:19.571Z,8.63
2019-03-31T00:55:48.139Z,9.57
2019-03-31T00:58:16.598Z,9.03
2019-03-31T01:00:47.877Z,8.60
2019-03-31T01:03:18.309Z,8.83
2019-03-31T01:05:46.958Z,9.03
2019-03-31T01:08:16.158Z,9.17
2019-03-31T01:10:44.689Z,9.57
2019-03-31T01:13:13.615Z,8.73
2019-03-31T01:15:42.214Z,9.00
2019-03-31T01:18:11.407Z,9.03
2019-03-31T01:20:40.010Z,9.43
2019-03-31T01:23:08.565Z,8.60
2019-03-31T01:25:37.027Z,8.93
2019-03-31T01:28:05.790Z,10.27
2019-03-31T01:30:34.412Z,9.60
2019-03-31T01:33:03.114Z,9.10
2019-03-31T01:35:31.775Z,9.13
2019-03-31T01:38:00.336Z,9.43
2019-03-31T01:40:28.962Z,9.50
2019-03-31T01:42:57.590Z,9.30
2019-03-31T01:45:26.471Z,9.30
2019-03-31T01:47:54.934Z,9.00
2019-03-31T01:50:24.886Z,9.20
2019-03-31T01:52:53.350Z,9.13
2019-03-31T01:55:22.082Z,10.00
2019-03-31T01:57:50.548Z,9.20
2019-03-31T02:00:26.586Z,8.90
2019-03-31T02:02:55.047Z,8.77
2019-03-31T02:05:23.684Z,8.90
2019-03-31T02:07:52.143Z,9.40
2019-03-31T02:10:20.642Z,8.97
2019-03-31T02:12:49.110Z,9.97
2019-03-31T02:15:17.787Z,10.20
2019-03-31T02:17:46.338Z,10.80
2019-03-31T02:20:14.887Z,10.30
2019-03-31T02:22:43.374Z,9.37
2019-03-31T02:25:11.841Z,9.67
2019-03-31T02:27:40.328Z,10.70
2019-03-31T02:30:09.386Z,10.87
2019-03-31T02:32:37.951Z,10.40
2019-03-31T02:35:06.558Z,10.33
2019-03-31T02:37:35.055Z,11.57
2019-03-31T02:40:04.340Z,11.73
2019-03-31T02:42:32.839Z,11.60
2019-03-31T02:45:01.374Z,12.33
2019-03-31T02:47:29.912Z,11.87
2019-03-31T02:49:58.475Z,11.87
2019-03-31T02:52:27.155Z,11.57
2019-03-31T02:54:55.863Z,10.87
2019-03-31T02:57:24.946Z,11.27
2019-03-31T02:59:54.218Z,10.20
2019-03-31T03:02:40.641Z,10.23
2019-03-31T03:04:55.570Z,9.53
2019-03-31T03:07:25.738Z,10.13
2019-03-31T03:09:56.031Z,9.67
2019-03-31T03:12:27.602Z,9.83
2019-03-31T03:14:59.331Z,10.20
2019-03-31T03:17:28.130Z,10.47
2019-03-31T03:19:56.595Z,9.73
2019-03-31T03:22:25.177Z,9.23
2019-03-31T03:24:53.720Z,9.57
2019-03-31T03:27:22.276Z,9.67
2019-03-31T03:29:50.822Z,9.40
2019-03-31T03:32:19.486Z,9.50
2019-03-31T03:34:48.022Z,9.73
2019-03-31T03:37:16.576Z,9.53
2019-03-31T03:39:45.035Z,9.10
2019-03-31T03:42:13.531Z,10.07
2019-03-31T03:44:42.071Z,9.33
2019-03-31T03:47:10.535Z,9.70
2019-03-31T03:49:39.020Z,9.43
2019-03-31T03:52:07.560Z,9.17
2019-03-31T03:54:36.122Z,9.20
2019-03-31T03:57:04.588Z,9.30
2019-03-31T03:59:33.146Z,9.70
2019-03-31T04:02:01.606Z,9.70
2019-03-31T04:04:30.103Z,9.83
2019-03-31T04:06:58.638Z,9.60
2019-03-31T04:09:27.194Z,9.83
2019-03-31T04:11:55.689Z,9.93
2019-03-31T04:14:24.152Z,10.23
2019-03-31T04:16:52.632Z,9.83
2019-03-31T04:19:21.096Z,9.17
2019-03-31T04:21:49.613Z,9.67
2019-03-31T04:24:18.151Z,9.43
2019-03-31T04:26:46.626Z,10.00
2019-03-31T04:29:15.192Z,10.00
2019-03-31T04:31:43.732Z,10.03
2019-03-31T04:34:12.317Z,10.00
2019-03-31T04:36:40.878Z,9.60
2019-03-31T04:39:09.395Z,9.83
2019-03-31T04:41:37.887Z,10.13
2019-03-31T04:44:06.446Z,10.60
2019-03-31T04:46:34.902Z,9.57
2019-03-31T04:49:03.467Z,9.37
2019-03-31T04:51:32.003Z,9.10
2019-03-31T04:54:00.564Z,9.10
2019-03-31T04:56:29.186Z,9.07
2019-03-31T04:58:57.734Z,9.53
2019-03-31T05:01:26.223Z,9.60
2019-03-31T05:04:04.455Z,9.77
2019-03-31T05:06:25.064Z,9.03
2019-03-31T05:08:53.622Z,8.90
2019-03-31T05:11:22.127Z,8.37
2019-03-31T05:13:50.656Z,9.43
2019-03-31T05:16:19.223Z,9.40
2019-03-31T05:18:47.682Z,8.97
2019-03-31T05:21:16.271Z,9.03
2019-03-31T05:23:44.734Z,8.70
2019-03-31T05:26:13.214Z,8.83
2019-03-31T05:28:44.207Z,9.13
2019-03-31T05:31:11.882Z,9.10
2019-03-31T05:33:40.374Z,9.20
2019-03-31T05:36:08.855Z,9.07
2019-03-31T05:38:37.342Z,8.80
2019-03-31T05:41:05.802Z,9.17
2019-03-31T05:43:34.293Z,9.40
2019-03-31T05:46:02.900Z,9.10
2019-03-31T05:48:31.459Z,9.27
2019-03-31T05:50:59.932Z,9.47
2019-03-31T05:53:28.490Z,9.33
2019-03-31T05:55:57.194Z,9.23
2019-03-31T05:58:25.742Z,10.20
2019-03-31T06:00:54.595Z,9.87
2019-03-31T06:03:23.135Z,9.20
2019-03-31T06:05:51.630Z,10.20
2019-03-31T06:08:20.164Z,9.33
2019-03-31T06:10:48.654Z,10.10
2019-03-31T06:13:17.127Z,9.10
2019-03-31T06:15:45.704Z,8.50
2019-03-31T06:18:14.230Z,8.67
2019-03-31T06:20:42.690Z,8.80
2019-03-31T06:23:11.178Z,8.60
2019-03-31T06:25:39.666Z,8.17
2019-03-31T06:28:08.148Z,7.67
2019-03-31T06:30:36.755Z,7.30
2019-03-31T06:33:05.394Z,7.50
2019-03-31T06:35:33.854Z,7.27
2019-03-31T06:38:02.322Z,7.83
2019-03-31T06:40:30.811Z,6.90
2019-03-31T06:42:59.538Z,8.00
2019-03-31T06:45:28.079Z,8.00
2019-03-31T06:47:56.539Z,7.70
2019-03-31T06:50:25.054Z,7.47
2019-03-31T06:52:53.590Z,7.63
2019-03-31T06:55:22.058Z,7.63
2019-03-31T06:57:50.550Z,7.63
2019-03-31T07:00:19.175Z,7.20
2019-03-31T07:02:47.638Z,7.97
2019-03-31T07:05:16.122Z,7.53
2019-03-31T07:07:44.679Z,7.27
2019-03-31T07:10:13.382Z,7.27
2019-03-31T07:12:41.875Z,7.70
2019-03-31T07:15:10.971Z,7.27
2019-03-31T07:17:39.523Z,6.70
2019-03-31T07:20:10.222Z,7.37
2019-03-31T07:22:39.034Z,7.20
2019-03-31T07:25:09.138Z,7.83
2019-03-31T07:27:38.340Z,7.93
2019-03-31T07:30:12.570Z,8.03
2019-03-31T07:32:41.106Z,7.87
2019-03-31T07:35:18.474Z,7.87
2019-03-31T07:37:47.068Z,7.87
2019-03-31T07:40:14.182Z,7.95
2019-03-31T07:42:42.723Z,8.15
2019-03-31T07:45:14.195Z,7.90
2019-03-31T07:47:42.835Z,7.92
2019-03-31T07:50:13.758Z,8.43
2019-03-31T07:52:42.232Z,8.68
2019-03-31T07:55:12.586Z,7.37
2019-03-31T07:57:41.530Z,8.23
2019-03-31T08:00:18.801Z,8.53
2019-03-31T08:02:47.363Z,8.30
2019-03-31T08:05:16.066Z,8.80
2019-03-31T08:07:44.673Z,8.30
2019-03-31T08:10:13.574Z,8.65
2019-03-31T08:12:42.585Z,8.45
2019-03-31T08:15:11.663Z,8.68
2019-03-31T08:17:42.824Z,8.88
2019-03-31T08:20:12.583Z,10.65
2019-03-31T08:22:41.071Z,9.80
2019-03-31T08:25:10.511Z,10.23
2019-03-31T08:27:39.054Z,10.48
2019-03-31T08:30:10.260Z,10.45
2019-03-31T08:32:38.903Z,10.05
2019-03-31T08:35:09.117Z,10.35
2019-03-31T08:37:37.657Z,10.25
2019-03-31T08:40:08.594Z,10.82
2019-03-31T08:42:37.206Z,11.80
2019-03-31T08:45:07.402Z,10.63
2019-03-31T08:47:36.042Z,12.28
2019-03-31T08:50:06.976Z,11.03
2019-03-31T08:52:35.516Z,10.72
2019-03-31T08:55:04.922Z,10.93
2019-03-31T08:57:33.490Z,10.72
2019-03-31T09:00:02.037Z,10.30
2019-03-31T09:02:34.858Z,12.28
2019-03-31T09:05:04.791Z,12.15
2019-03-31T09:07:33.258Z,11.28
2019-03-31T09:10:01.761Z,11.00
2019-03-31T09:12:30.299Z,11.12
2019-03-31T09:14:58.794Z,11.05
2019-03-31T09:17:27.366Z,11.97
2019-03-31T09:19:55.906Z,11.75
2019-03-31T09:22:24.411Z,11.35
2019-03-31T09:24:52.983Z,11.38
2019-03-31T09:27:21.471Z,10.80
2019-03-31T09:29:49.983Z,10.80
2019-03-31T09:32:18.518Z,10.85
2019-03-31T09:34:47.012Z,11.05
2019-03-31T09:37:15.483Z,11.63
2019-03-31T09:39:43.982Z,13.38
2019-03-31T09:42:12.532Z,13.95
2019-03-31T09:44:41.094Z,14.63
2019-03-31T09:47:09.570Z,13.20
2019-03-31T09:49:38.072Z,13.88
2019-03-31T09:52:06.682Z,14.78
2019-03-31T09:54:35.175Z,13.68
2019-03-31T09:57:04.338Z,14.68
2019-03-31T09:59:32.822Z,14.20
2019-03-31T10:02:01.326Z,14.63
2019-03-31T10:04:29.800Z,14.35
2019-03-31T10:06:58.362Z,14.18
2019-03-31T10:09:27.171Z,15.28
2019-03-31T10:11:55.684Z,13.95
2019-03-31T10:14:24.154Z,13.90
2019-03-31T10:16:52.626Z,13.88
2019-03-31T10:19:21.154Z,13.85
2019-03-31T10:21:49.692Z,12.88
2019-03-31T10:24:18.166Z,13.88
2019-03-31T10:26:46.662Z,12.50
2019-03-31T10:29:15.189Z,13.00
2019-03-31T10:31:43.880Z,14.30
2019-03-31T10:34:12.443Z,12.73
2019-03-31T10:36:44.848Z,13.50
2019-03-31T10:39:11.226Z,12.60
2019-03-31T10:41:39.694Z,13.40
2019-03-31T10:44:08.262Z,13.98
2019-03-31T10:46:36.755Z,13.13
2019-03-31T10:49:05.422Z,12.85
2019-03-31T10:51:34.135Z,13.15
2019-03-31T10:54:04.549Z,12.73
2019-03-31T10:56:32.899Z,13.85
2019-03-31T10:59:01.987Z,14.65
2019-03-31T11:01:31.048Z,13.72
2019-03-31T11:03:59.516Z,13.40
2019-03-31T11:06:28.010Z,13.83
2019-03-31T11:08:56.482Z,13.43
2019-03-31T11:11:25.057Z,12.40
2019-03-31T11:13:53.618Z,13.80
2019-03-31T11:16:22.133Z,13.63
2019-03-31T11:18:50.691Z,12.97
2019-03-31T11:21:20.946Z,12.73
2019-03-31T11:23:49.781Z,13.07
2019-03-31T11:26:18.330Z,12.85
2019-03-31T11:28:46.995Z,12.82
2019-03-31T11:31:18.000Z,13.32
2019-03-31T11:33:45.658Z,12.82
2019-03-31T11:36:14.150Z,14.03
2019-03-31T11:38:42.711Z,13.50
2019-03-31T11:41:11.272Z,13.03
2019-03-31T11:43:39.806Z,12.33
2019-03-31T11:46:08.318Z,12.80
2019-03-31T11:48:36.791Z,12.40
2019-03-31T11:51:05.274Z,12.90
2019-03-31T11:53:33.767Z,12.97
2019-03-31T11:56:02.236Z,12.90
2019-03-31T11:58:32.281Z,13.83
2019-03-31T12:01:01.044Z,14.97
2019-03-31T12:03:31.069Z,12.90
2019-03-31T12:06:00.062Z,14.20
2019-03-31T12:08:28.675Z,13.80
2019-03-31T12:10:57.242Z,13.50
2019-03-31T12:13:25.738Z,15.20
2019-03-31T12:15:54.371Z,14.40
2019-03-31T12:18:22.839Z,13.77
2019-03-31T12:20:51.474Z,14.03
2019-03-31T12:23:19.946Z,13.10
2019-03-31T12:25:48.446Z,13.10
2019-03-31T12:28:16.919Z,13.43
2019-03-31T12:30:45.418Z,13.43
2019-03-31T12:33:13.889Z,14.03
2019-03-31T12:35:42.450Z,12.87
2019-03-31T12:38:10.927Z,13.00
2019-03-31T12:40:39.659Z,13.27
2019-03-31T12:43:09.463Z,12.60
2019-03-31T12:45:38.008Z,13.03
2019-03-31T12:48:06.587Z,12.93
2019-03-31T12:50:35.202Z,12.40
2019-03-31T12:53:04.059Z,13.87
2019-03-31T12:55:32.680Z,13.93
2019-03-31T12:58:01.151Z,14.20
2019-03-31T13:00:29.727Z,13.03
2019-03-31T13:02:58.266Z,14.03
2019-03-31T13:05:26.803Z,13.87
2019-03-31T13:07:56.519Z,13.13
2019-03-31T13:10:25.641Z,13.20
2019-03-31T13:12:54.209Z,14.33
2019-03-31T13:15:22.758Z,13.27
2019-03-31T13:17:51.466Z,12.90
2019-03-31T13:20:20.270Z,14.07
2019-03-31T13:22:48.739Z,13.53
2019-03-31T13:25:17.232Z,13.13
2019-03-31T13:27:45.771Z,13.90
2019-03-31T13:30:14.503Z,13.43
2019-03-31T13:32:43.045Z,14.23
2019-03-31T13:35:11.531Z,13.97
2019-03-31T13:37:39.991Z,12.60
2019-03-31T13:40:08.937Z,14.03
2019-03-31T13:42:37.872Z,14.07
2019-03-31T13:45:07.478Z,15.40
2019-03-31T13:47:35.973Z,14.60
2019-03-31T13:50:07.759Z,14.23
2019-03-31T13:52:36.387Z,14.60
2019-03-31T13:55:08.404Z,15.07
2019-03-31T13:57:39.850Z,13.47
2019-03-31T14:00:09.723Z,14.10
2019-03-31T14:02:38.530Z,14.30
2019-03-31T14:05:07.206Z,14.27
2019-03-31T14:07:35.854Z,14.40
2019-03-31T14:10:06.431Z,13.63
2019-03-31T14:12:35.079Z,15.23
2019-03-31T14:15:18.546Z,13.43
2019-03-31T14:17:35.998Z,14.23
2019-03-31T14:20:09.196Z,12.33
2019-03-31T14:22:37.739Z,13.77
2019-03-31T14:25:06.971Z,14.00
2019-03-31T14:27:35.438Z,13.80
2019-03-31T14:30:09.003Z,16.03
2019-03-31T14:32:37.551Z,14.40
2019-03-31T14:35:06.756Z,15.80
2019-03-31T14:37:35.321Z,15.47
2019-03-31T14:40:04.234Z,13.77
2019-03-31T14:42:32.782Z,14.83
2019-03-31T14:45:01.379Z,14.10
2019-03-31T14:47:29.919Z,14.97
2019-03-31T14:49:58.522Z,15.80
2019-03-31T14:52:27.950Z,17.33
2019-03-31T14:54:56.582Z,16.83
2019-03-31T14:57:25.149Z,19.40
2019-03-31T14:59:53.615Z,18.20
2019-03-31T15:02:22.090Z,19.30
2019-03-31T15:04:50.651Z,19.83
2019-03-31T15:07:19.194Z,20.23
2019-03-31T15:09:47.715Z,23.07
2019-03-31T15:12:16.183Z,24.93
2019-03-31T15:14:44.731Z,26.07
2019-03-31T15:17:13.231Z,23.73
2019-03-31T15:19:41.799Z,17.33
2019-03-31T15:22:10.274Z,21.83
2019-03-31T15:24:40.304Z,24.37
2019-03-31T15:27:08.931Z,25.57
2019-03-31T15:29:37.403Z,26.73
2019-03-31T15:32:05.971Z,29.23
2019-03-31T15:34:34.515Z,28.37
2019-03-31T15:37:03.010Z,27.00
2019-03-31T15:39:31.500Z,29.37
2019-03-31T15:42:00.186Z,28.73
2019-03-31T15:44:28.739Z,28.90
2019-03-31T15:46:57.210Z,29.57
2019-03-31T15:49:25.710Z,30.43
2019-03-31T15:51:54.373Z,30.60
2019-03-31T15:54:22.951Z,30.67
2019-03-31T15:56:51.598Z,30.23
2019-03-31T15:59:40.963Z,32.63
2019-03-31T16:02:09.486Z,32.03
2019-03-31T16:04:37.983Z,32.60
2019-03-31T16:07:06.589Z,32.17
2019-03-31T16:09:35.190Z,33.67
2019-03-31T16:12:03.738Z,32.40
2019-03-31T16:14:32.207Z,31.80
2019-03-31T16:17:00.694Z,32.53
2019-03-31T16:19:29.191Z,32.43
2019-03-31T16:21:57.665Z,31.87
2019-03-31T16:24:43.954Z,31.63
2019-03-31T16:27:12.528Z,30.70
2019-03-31T16:29:41.094Z,31.53
2019-03-31T16:32:09.659Z,32.73
2019-03-31T16:34:38.239Z,32.13
2019-03-31T16:37:06.710Z,31.00
2019-03-31T16:39:37.903Z,32.40
2019-03-31T16:42:05.594Z,31.23
2019-03-31T16:44:34.063Z,32.03
2019-03-31T16:47:02.555Z,29.30
2019-03-31T16:49:31.222Z,29.80
2019-03-31T16:51:59.682Z,31.43
2019-03-31T16:54:28.251Z,30.90
2019-03-31T16:56:56.793Z,32.17
2019-03-31T16:59:25.372Z,30.90
2019-03-31T17:01:53.938Z,31.50
2019-03-31T17:04:22.506Z,30.00
2019-03-31T17:06:51.031Z,30.50
2019-03-31T17:09:19.636Z,29.30
2019-03-31T17:11:48.179Z,29.00
2019-03-31T17:14:17.018Z,28.57
2019-03-31T17:16:45.490Z,30.00
2019-03-31T17:19:14.064Z,28.03
2019-03-31T17:21:42.606Z,28.27
2019-03-31T17:24:11.074Z,28.13
2019-03-31T17:26:39.567Z,28.37
2019-03-31T17:29:08.034Z,28.97
2019-03-31T17:31:36.525Z,28.60
2019-03-31T17:34:05.163Z,28.10
2019-03-31T17:36:33.658Z,28.60
2019-03-31T17:39:02.291Z,26.50
2019-03-31T17:41:30.882Z,28.17
2019-03-31T17:43:59.430Z,27.67
2019-03-31T17:46:28.011Z,27.37
2019-03-31T17:48:56.561Z,26.47
2019-03-31T17:51:25.102Z,26.83
2019-03-31T17:53:53.600Z,27.30
2019-03-31T17:56:22.230Z,26.77
2019-03-31T17:58:50.895Z,26.23
2019-03-31T18:01:19.389Z,26.63
2019-03-31T18:03:47.894Z,25.67
2019-03-31T18:06:16.379Z,25.73
2019-03-31T18:08:44.915Z,26.23
2019-03-31T18:11:13.417Z,24.80
2019-03-31T18:13:41.891Z,25.43
2019-03-31T18:16:10.524Z,24.97
2019-03-31T18:18:39.087Z,25.23
2019-03-31T18:21:07.631Z,24.83
2019-03-31T18:23:36.111Z,23.50
2019-03-31T18:26:04.846Z,23.23
2019-03-31T18:28:33.436Z,22.70
2019-03-31T18:31:02.002Z,22.43
2019-03-31T18:33:30.475Z,21.30
2019-03-31T18:35:59.046Z,19.67
2019-03-31T18:38:27.514Z,18.43
2019-03-31T18:40:56.106Z,18.03
2019-03-31T18:43:24.576Z,17.10
2019-03-31T18:45:53.150Z,17.60
2019-03-31T18:48:21.802Z,15.97
2019-03-31T18:50:50.419Z,16.03
2019-03-31T18:53:23.298Z,15.87
2019-03-31T18:55:59.450Z,16.17
2019-03-31T18:58:46.203Z,14.73
2019-03-31T19:01:32.918Z,15.50
2019-03-31T19:04:19.558Z,14.30
2019-03-31T19:07:06.023Z,14.10
2019-03-31T19:09:36.140Z,14.90
2019-03-31T19:12:15.506Z,14.43
2019-03-31T19:15:00.993Z,14.20
2019-03-31T19:17:36.995Z,14.23
2019-03-31T19:20:13.338Z,14.47
2019-03-31T19:22:46.247Z,13.90
2019-03-31T19:25:22.051Z,13.03
2019-03-31T19:27:52.259Z,14.00
2019-03-31T19:30:22.463Z,14.40
2019-03-31T19:32:52.571Z,12.97
2019-03-31T19:35:25.543Z,13.30
2019-03-31T19:37:55.648Z,13.47
2019-03-31T19:40:28.787Z,13.77
2019-03-31T19:42:59.066Z,13.10
2019-03-31T19:45:35.052Z,12.47
2019-03-31T19:48:08.083Z,12.30
2019-03-31T19:50:56.386Z,12.80
2019-03-31T19:53:42.618Z,12.30
2019-03-31T19:56:15.479Z,12.27
2019-03-31T19:58:45.802Z,12.47
2019-03-31T20:01:31.990Z,12.70
2019-03-31T20:04:18.715Z,12.10
2019-03-31T20:07:05.711Z,12.40
2019-03-31T20:09:48.195Z,12.17
2019-03-31T20:12:35.043Z,12.97
2019-03-31T20:15:14.550Z,11.70
2019-03-31T20:17:53.767Z,12.00
2019-03-31T20:20:29.874Z,11.97
2019-03-31T20:23:11.838Z,12.30
2019-03-31T20:25:41.975Z,11.83
2019-03-31T20:28:20.975Z,11.97
2019-03-31T20:31:02.763Z,11.77
2019-03-31T20:33:35.611Z,11.93
2019-03-31T20:36:18.760Z,12.40
2019-03-31T20:39:01.344Z,11.57
2019-03-31T20:41:40.474Z,11.57
2019-03-31T20:44:09.400Z,11.70
2019-03-31T20:46:37.922Z,11.17
2019-03-31T20:49:06.431Z,11.87
2019-03-31T20:51:34.970Z,11.47
2019-03-31T20:54:03.506Z,11.40
2019-03-31T20:56:32.098Z,10.83
2019-03-31T20:59:00.567Z,10.87
2019-03-31T21:01:29.134Z,10.80
2019-03-31T21:03:57.609Z,11.00
2019-03-31T21:06:26.166Z,11.00
2019-03-31T21:08:54.701Z,10.53
2019-03-31T21:11:23.162Z,11.17
2019-03-31T21:13:52.527Z,10.17
2019-03-31T21:16:21.107Z,11.07
2019-03-31T21:18:49.662Z,10.03
2019-03-31T21:21:18.190Z,11.33
2019-03-31T21:23:46.685Z,10.73
2019-03-31T21:26:15.250Z,10.43
2019-03-31T21:28:43.812Z,10.87
2019-03-31T21:31:12.347Z,11.07
2019-03-31T21:33:40.850Z,10.50
2019-03-31T21:36:09.386Z,10.70
2019-03-31T21:38:37.875Z,10.63
2019-03-31T21:41:06.343Z,10.33
2019-03-31T21:43:34.883Z,10.40
2019-03-31T21:46:03.511Z,9.80
2019-03-31T21:48:31.999Z,10.73
2019-03-31T21:51:00.462Z,9.97
2019-03-31T21:53:28.922Z,9.83
2019-03-31T21:55:57.411Z,9.57
2019-03-31T21:58:25.878Z,10.10
2019-03-31T22:00:57.126Z,10.40
2019-03-31T22:03:25.722Z,9.73
2019-03-31T22:05:54.386Z,9.73
2019-03-31T22:08:22.898Z,9.43
2019-03-31T22:10:51.431Z,9.30
2019-03-31T22:13:19.894Z,10.17
2019-03-31T22:15:48.380Z,9.67
2019-03-31T22:18:16.962Z,10.93
2019-03-31T22:20:47.298Z,9.90
2019-03-31T22:23:15.706Z,9.47
2019-03-31T22:25:44.163Z,9.10
2019-03-31T22:28:12.670Z,8.80
2019-03-31T22:30:41.134Z,9.30
2019-03-31T22:33:09.599Z,9.70
2019-03-31T22:35:38.178Z,10.73
2019-03-31T22:38:06.644Z,10.40
2019-03-31T22:40:35.134Z,9.67
2019-03-31T22:43:03.680Z,9.77
2019-03-31T22:45:32.234Z,10.13
2019-03-31T22:48:00.706Z,10.00
2019-03-31T22:50:29.194Z,10.37
2019-03-31T22:52:57.655Z,10.37
2019-03-31T22:55:26.151Z,10.90
2019-03-31T22:57:54.614Z,11.33
2019-03-31T23:00:24.840Z,10.93
2019-03-31T23:02:53.387Z,11.30
2019-03-31T23:05:22.570Z,11.73
2019-03-31T23:07:51.163Z,10.80
2019-03-31T23:10:19.723Z,11.50
2019-03-31T23:12:48.302Z,11.93
2019-03-31T23:15:16.843Z,11.00
2019-03-31T23:17:45.373Z,11.60
2019-03-31T23:20:13.935Z,10.90
2019-03-31T23:22:42.430Z,11.40
2019-03-31T23:25:11.362Z,11.87
2019-03-31T23:27:39.946Z,12.70
2019-03-31T23:30:10.191Z,11.70
2019-03-31T23:32:38.723Z,11.50
2019-03-31T23:35:07.783Z,11.70
2019-03-31T23:37:36.250Z,12.83
2019-03-31T23:40:06.083Z,12.50
2019-03-31T23:42:34.619Z,12.97
2019-03-31T23:45:03.654Z,13.50
2019-03-31T23:47:32.150Z,13.83
2019-03-31T23:50:00.621Z,12.33
2019-03-31T23:52:29.163Z,13.33
2019-03-31T23:54:57.646Z,14.10
2019-03-31T23:57:42.409Z,13.30
